sensor_id;sensor_type;location;lat;lon;timestamp;temperature;humidity
5192;DHT22;2615;44.524;11.284;2023-04-03T00:01:13;10.30;59.50
5192;DHT22;2615;44.524;11.284;2023-04-03T00:03:42;10.30;59.50
5192;DHT22;2615;44.524;11.284;2023-04-03T00:06:11;10.30;59.40
5192;DHT22;2615;44.524;11.284;2023-04-03T00:08:39;10.30;59.40
5192;DHT22;2615;44.524;11.284;2023-04-03T00:11:08;10.30;59.40
5192;DHT22;2615;44.524;11.284;2023-04-03T00:13:37;10.30;59.40
5192;DHT22;2615;44.524;11.284;2023-04-03T00:16:06;10.30;59.40
5192;DHT22;2615;44.524;11.284;2023-04-03T00:18:34;10.30;59.30
5192;DHT22;2615;44.524;11.284;2023-04-03T00:21:04;10.30;59.30
5192;DHT22;2615;44.524;11.284;2023-04-03T00:23:33;10.40;59.40
5192;DHT22;2615;44.524;11.284;2023-04-03T00:26:01;10.30;59.20
5192;DHT22;2615;44.524;11.284;2023-04-03T00:28:30;10.30;59.10
5192;DHT22;2615;44.524;11.284;2023-04-03T00:30:58;10.30;59.10
5192;DHT22;2615;44.524;11.284;2023-04-03T00:33:26;10.30;59.20
5192;DHT22;2615;44.524;11.284;2023-04-03T00:35:54;10.30;59.20
5192;DHT22;2615;44.524;11.284;2023-04-03T00:38:24;10.30;59.20
5192;DHT22;2615;44.524;11.284;2023-04-03T00:40:52;10.30;59.20
5192;DHT22;2615;44.524;11.284;2023-04-03T00:43:22;10.30;59.10
5192;DHT22;2615;44.524;11.284;2023-04-03T00:45:52;10.20;59.10
5192;DHT22;2615;44.524;11.284;2023-04-03T00:48:21;10.20;59.60
5192;DHT22;2615;44.524;11.284;2023-04-03T00:50:50;10.20;59.10
5192;DHT22;2615;44.524;11.284;2023-04-03T00:53:24;10.20;59.00
5192;DHT22;2615;44.524;11.284;2023-04-03T00:55:54;10.10;58.90
5192;DHT22;2615;44.524;11.284;2023-04-03T00:58:27;10.10;58.90
5192;DHT22;2615;44.524;11.284;2023-04-03T01:00:58;10.10;59.00
5192;DHT22;2615;44.524;11.284;2023-04-03T01:03:26;10.10;59.00
5192;DHT22;2615;44.524;11.284;2023-04-03T01:05:54;10.10;59.00
5192;DHT22;2615;44.524;11.284;2023-04-03T01:08:24;10.10;59.10
5192;DHT22;2615;44.524;11.284;2023-04-03T01:10:52;10.10;59.00
5192;DHT22;2615;44.524;11.284;2023-04-03T01:13:24;10.10;59.00
5192;DHT22;2615;44.524;11.284;2023-04-03T01:15:53;10.10;59.00
5192;DHT22;2615;44.524;11.284;2023-04-03T01:18:22;10.10;59.00
5192;DHT22;2615;44.524;11.284;2023-04-03T01:21:17;10.10;59.00
5192;DHT22;2615;44.524;11.284;2023-04-03T01:23:58;10.10;59.00
5192;DHT22;2615;44.524;11.284;2023-04-03T01:26:29;10.00;58.90
5192;DHT22;2615;44.524;11.284;2023-04-03T01:28:59;10.00;58.90
5192;DHT22;2615;44.524;11.284;2023-04-03T01:31:29;10.00;58.90
5192;DHT22;2615;44.524;11.284;2023-04-03T01:34:01;9.90;59.80
5192;DHT22;2615;44.524;11.284;2023-04-03T01:36:30;9.90;59.70
5192;DHT22;2615;44.524;11.284;2023-04-03T01:39:00;9.80;59.80
5192;DHT22;2615;44.524;11.284;2023-04-03T01:41:28;9.80;59.80
5192;DHT22;2615;44.524;11.284;2023-04-03T01:43:56;9.80;59.90
5192;DHT22;2615;44.524;11.284;2023-04-03T01:46:25;9.80;59.90
5192;DHT22;2615;44.524;11.284;2023-04-03T01:48:53;9.80;59.90
5192;DHT22;2615;44.524;11.284;2023-04-03T01:51:22;9.70;59.90
5192;DHT22;2615;44.524;11.284;2023-04-03T01:53:50;9.70;60.00
5192;DHT22;2615;44.524;11.284;2023-04-03T01:56:18;9.70;60.10
5192;DHT22;2615;44.524;11.284;2023-04-03T01:58:46;9.60;60.00
5192;DHT22;2615;44.524;11.284;2023-04-03T02:01:15;9.70;60.10
5192;DHT22;2615;44.524;11.284;2023-04-03T02:03:43;9.60;60.80
5192;DHT22;2615;44.524;11.284;2023-04-03T02:06:11;9.70;60.20
5192;DHT22;2615;44.524;11.284;2023-04-03T02:08:40;9.70;60.10
5192;DHT22;2615;44.524;11.284;2023-04-03T02:11:09;9.70;60.10
5192;DHT22;2615;44.524;11.284;2023-04-03T02:13:37;9.70;60.30
5192;DHT22;2615;44.524;11.284;2023-04-03T02:16:09;9.70;60.10
5192;DHT22;2615;44.524;11.284;2023-04-03T02:18:38;9.70;60.10
5192;DHT22;2615;44.524;11.284;2023-04-03T02:21:06;9.70;60.00
5192;DHT22;2615;44.524;11.284;2023-04-03T02:23:34;9.80;60.10
5192;DHT22;2615;44.524;11.284;2023-04-03T02:26:07;9.80;60.00
5192;DHT22;2615;44.524;11.284;2023-04-03T02:28:36;9.80;60.10
5192;DHT22;2615;44.524;11.284;2023-04-03T02:31:05;9.80;60.00
5192;DHT22;2615;44.524;11.284;2023-04-03T02:33:34;9.80;60.00
5192;DHT22;2615;44.524;11.284;2023-04-03T02:36:03;9.90;60.10
5192;DHT22;2615;44.524;11.284;2023-04-03T02:38:32;9.90;60.20
5192;DHT22;2615;44.524;11.284;2023-04-03T02:41:01;9.90;60.10
5192;DHT22;2615;44.524;11.284;2023-04-03T02:43:31;9.90;60.00
5192;DHT22;2615;44.524;11.284;2023-04-03T02:45:59;9.90;60.00
5192;DHT22;2615;44.524;11.284;2023-04-03T02:48:27;9.90;60.00
5192;DHT22;2615;44.524;11.284;2023-04-03T02:50:55;9.90;60.00
5192;DHT22;2615;44.524;11.284;2023-04-03T02:53:23;9.90;59.90
5192;DHT22;2615;44.524;11.284;2023-04-03T02:55:51;9.90;59.90
5192;DHT22;2615;44.524;11.284;2023-04-03T02:58:19;9.90;59.80
5192;DHT22;2615;44.524;11.284;2023-04-03T03:00:49;9.90;59.80
5192;DHT22;2615;44.524;11.284;2023-04-03T03:03:17;9.90;59.90
5192;DHT22;2615;44.524;11.284;2023-04-03T03:05:45;9.90;59.90
5192;DHT22;2615;44.524;11.284;2023-04-03T03:08:14;9.90;59.90
5192;DHT22;2615;44.524;11.284;2023-04-03T03:10:42;9.90;59.90
5192;DHT22;2615;44.524;11.284;2023-04-03T03:13:12;9.90;60.00
5192;DHT22;2615;44.524;11.284;2023-04-03T03:15:40;9.90;59.90
5192;DHT22;2615;44.524;11.284;2023-04-03T03:18:09;9.90;60.00
5192;DHT22;2615;44.524;11.284;2023-04-03T03:20:37;9.90;59.90
5192;DHT22;2615;44.524;11.284;2023-04-03T03:23:05;9.90;60.00
5192;DHT22;2615;44.524;11.284;2023-04-03T03:25:33;9.90;60.00
5192;DHT22;2615;44.524;11.284;2023-04-03T03:28:05;9.90;60.00
5192;DHT22;2615;44.524;11.284;2023-04-03T03:30:33;9.90;60.00
5192;DHT22;2615;44.524;11.284;2023-04-03T03:33:02;9.90;60.00
5192;DHT22;2615;44.524;11.284;2023-04-03T03:35:31;9.90;60.00
5192;DHT22;2615;44.524;11.284;2023-04-03T03:38:00;9.80;60.00
5192;DHT22;2615;44.524;11.284;2023-04-03T03:40:28;9.80;60.00
5192;DHT22;2615;44.524;11.284;2023-04-03T03:42:56;9.90;60.10
5192;DHT22;2615;44.524;11.284;2023-04-03T03:45:24;9.80;60.00
5192;DHT22;2615;44.524;11.284;2023-04-03T03:47:52;9.90;60.00
5192;DHT22;2615;44.524;11.284;2023-04-03T03:50:20;9.80;59.90
5192;DHT22;2615;44.524;11.284;2023-04-03T03:52:50;9.80;60.00
5192;DHT22;2615;44.524;11.284;2023-04-03T03:55:18;9.80;60.00
5192;DHT22;2615;44.524;11.284;2023-04-03T03:57:46;9.80;59.60
5192;DHT22;2615;44.524;11.284;2023-04-03T04:00:15;9.80;60.10
5192;DHT22;2615;44.524;11.284;2023-04-03T04:02:43;9.80;60.20
5192;DHT22;2615;44.524;11.284;2023-04-03T04:05:11;9.80;60.10
5192;DHT22;2615;44.524;11.284;2023-04-03T04:07:40;9.80;60.10
5192;DHT22;2615;44.524;11.284;2023-04-03T04:10:10;9.80;60.20
5192;DHT22;2615;44.524;11.284;2023-04-03T04:12:38;9.80;60.20
5192;DHT22;2615;44.524;11.284;2023-04-03T04:15:07;9.80;60.20
5192;DHT22;2615;44.524;11.284;2023-04-03T04:17:35;9.90;60.30
5192;DHT22;2615;44.524;11.284;2023-04-03T04:20:04;9.90;60.30
5192;DHT22;2615;44.524;11.284;2023-04-03T04:22:32;9.90;60.30
5192;DHT22;2615;44.524;11.284;2023-04-03T04:25:00;9.90;60.30
5192;DHT22;2615;44.524;11.284;2023-04-03T04:27:30;9.90;60.30
5192;DHT22;2615;44.524;11.284;2023-04-03T04:29:58;9.90;60.30
5192;DHT22;2615;44.524;11.284;2023-04-03T04:32:26;9.90;60.30
5192;DHT22;2615;44.524;11.284;2023-04-03T04:34:54;9.90;60.30
5192;DHT22;2615;44.524;11.284;2023-04-03T04:37:22;9.90;60.20
5192;DHT22;2615;44.524;11.284;2023-04-03T04:39:50;9.90;60.30
5192;DHT22;2615;44.524;11.284;2023-04-03T04:42:18;9.90;60.20
5192;DHT22;2615;44.524;11.284;2023-04-03T04:44:48;9.90;60.30
5192;DHT22;2615;44.524;11.284;2023-04-03T04:47:16;9.90;60.20
5192;DHT22;2615;44.524;11.284;2023-04-03T04:49:44;9.90;60.20
5192;DHT22;2615;44.524;11.284;2023-04-03T04:52:14;9.90;60.20
5192;DHT22;2615;44.524;11.284;2023-04-03T04:54:42;9.90;60.30
5192;DHT22;2615;44.524;11.284;2023-04-03T04:57:10;9.90;60.30
5192;DHT22;2615;44.524;11.284;2023-04-03T04:59:38;9.80;60.20
5192;DHT22;2615;44.524;11.284;2023-04-03T05:02:08;9.80;60.20
5192;DHT22;2615;44.524;11.284;2023-04-03T05:04:36;9.80;60.20
5192;DHT22;2615;44.524;11.284;2023-04-03T05:07:04;9.80;60.30
5192;DHT22;2615;44.524;11.284;2023-04-03T05:09:32;9.80;60.30
5192;DHT22;2615;44.524;11.284;2023-04-03T05:12:01;9.80;60.30
5192;DHT22;2615;44.524;11.284;2023-04-03T05:14:29;9.80;60.40
5192;DHT22;2615;44.524;11.284;2023-04-03T05:16:57;9.80;60.30
5192;DHT22;2615;44.524;11.284;2023-04-03T05:19:27;9.80;60.40
5192;DHT22;2615;44.524;11.284;2023-04-03T05:21:55;9.80;60.40
5192;DHT22;2615;44.524;11.284;2023-04-03T05:24:23;9.80;60.30
5192;DHT22;2615;44.524;11.284;2023-04-03T05:26:51;9.80;60.40
5192;DHT22;2615;44.524;11.284;2023-04-03T05:29:20;9.90;60.50
5192;DHT22;2615;44.524;11.284;2023-04-03T05:31:49;9.90;60.50
5192;DHT22;2615;44.524;11.284;2023-04-03T05:34:18;9.90;60.60
5192;DHT22;2615;44.524;11.284;2023-04-03T05:36:47;9.90;60.50
5192;DHT22;2615;44.524;11.284;2023-04-03T05:39:16;10.00;59.60
5192;DHT22;2615;44.524;11.284;2023-04-03T05:41:44;10.00;59.60
5192;DHT22;2615;44.524;11.284;2023-04-03T05:44:12;10.10;59.70
5192;DHT22;2615;44.524;11.284;2023-04-03T05:46:40;10.20;59.70
5192;DHT22;2615;44.524;11.284;2023-04-03T05:49:08;10.20;59.50
5192;DHT22;2615;44.524;11.284;2023-04-03T05:51:37;10.30;59.60
5192;DHT22;2615;44.524;11.284;2023-04-03T05:54:12;10.30;59.50
5192;DHT22;2615;44.524;11.284;2023-04-03T05:56:41;10.30;59.60
5192;DHT22;2615;44.524;11.284;2023-04-03T05:59:09;10.40;59.60
5192;DHT22;2615;44.524;11.284;2023-04-03T06:01:37;10.40;59.50
5192;DHT22;2615;44.524;11.284;2023-04-03T06:04:05;10.50;59.60
5192;DHT22;2615;44.524;11.284;2023-04-03T06:06:47;10.50;59.50
5192;DHT22;2615;44.524;11.284;2023-04-03T06:09:17;10.50;59.50
5192;DHT22;2615;44.524;11.284;2023-04-03T06:11:45;10.50;59.40
5192;DHT22;2615;44.524;11.284;2023-04-03T06:14:13;10.50;59.40
5192;DHT22;2615;44.524;11.284;2023-04-03T06:16:41;10.60;59.50
5192;DHT22;2615;44.524;11.284;2023-04-03T06:19:11;10.60;59.50
5192;DHT22;2615;44.524;11.284;2023-04-03T06:21:40;10.70;59.60
5192;DHT22;2615;44.524;11.284;2023-04-03T06:24:08;10.70;59.60
5192;DHT22;2615;44.524;11.284;2023-04-03T06:26:37;10.70;59.50
5192;DHT22;2615;44.524;11.284;2023-04-03T06:29:05;10.80;59.60
5192;DHT22;2615;44.524;11.284;2023-04-03T06:31:34;10.90;59.70
5192;DHT22;2615;44.524;11.284;2023-04-03T06:34:03;11.00;59.60
5192;DHT22;2615;44.524;11.284;2023-04-03T06:36:34;11.10;59.60
5192;DHT22;2615;44.524;11.284;2023-04-03T06:39:02;11.10;59.60
5192;DHT22;2615;44.524;11.284;2023-04-03T06:41:31;11.30;59.70
5192;DHT22;2615;44.524;11.284;2023-04-03T06:44:03;11.40;59.60
5192;DHT22;2615;44.524;11.284;2023-04-03T06:46:31;11.50;59.60
5192;DHT22;2615;44.524;11.284;2023-04-03T06:48:59;11.60;59.40
5192;DHT22;2615;44.524;11.284;2023-04-03T06:51:29;11.70;59.30
5192;DHT22;2615;44.524;11.284;2023-04-03T06:53:59;11.80;59.20
5192;DHT22;2615;44.524;11.284;2023-04-03T06:56:27;11.90;59.20
5192;DHT22;2615;44.524;11.284;2023-04-03T06:58:56;12.00;59.10
5192;DHT22;2615;44.524;11.284;2023-04-03T07:01:27;12.10;59.00
5192;DHT22;2615;44.524;11.284;2023-04-03T07:03:55;12.20;58.80
5192;DHT22;2615;44.524;11.284;2023-04-03T07:06:23;12.30;58.80
5192;DHT22;2615;44.524;11.284;2023-04-03T07:08:54;12.40;58.80
5192;DHT22;2615;44.524;11.284;2023-04-03T07:11:22;12.50;58.70
5192;DHT22;2615;44.524;11.284;2023-04-03T07:13:50;12.60;58.60
5192;DHT22;2615;44.524;11.284;2023-04-03T07:16:19;12.70;58.60
5192;DHT22;2615;44.524;11.284;2023-04-03T07:18:49;12.80;58.50
5192;DHT22;2615;44.524;11.284;2023-04-03T07:21:17;12.90;59.00
5192;DHT22;2615;44.524;11.284;2023-04-03T07:23:45;12.90;58.20
5192;DHT22;2615;44.524;11.284;2023-04-03T07:26:18;13.00;58.20
5192;DHT22;2615;44.524;11.284;2023-04-03T07:28:49;13.00;58.10
5192;DHT22;2615;44.524;11.284;2023-04-03T07:31:17;13.10;58.10
5192;DHT22;2615;44.524;11.284;2023-04-03T07:33:45;13.20;58.00
5192;DHT22;2615;44.524;11.284;2023-04-03T07:36:18;13.30;58.00
5192;DHT22;2615;44.524;11.284;2023-04-03T07:38:47;13.30;57.80
5192;DHT22;2615;44.524;11.284;2023-04-03T07:41:18;13.40;57.80
5192;DHT22;2615;44.524;11.284;2023-04-03T07:43:47;13.50;57.70
5192;DHT22;2615;44.524;11.284;2023-04-03T07:46:16;13.60;57.70
5192;DHT22;2615;44.524;11.284;2023-04-03T07:48:45;13.70;57.70
5192;DHT22;2615;44.524;11.284;2023-04-03T07:51:15;13.70;57.70
5192;DHT22;2615;44.524;11.284;2023-04-03T07:53:43;13.90;57.70
5192;DHT22;2615;44.524;11.284;2023-04-03T07:56:11;14.00;57.60
5192;DHT22;2615;44.524;11.284;2023-04-03T07:58:39;14.00;57.40
5192;DHT22;2615;44.524;11.284;2023-04-03T08:01:07;14.20;57.60
5192;DHT22;2615;44.524;11.284;2023-04-03T08:03:35;14.30;57.50
5192;DHT22;2615;44.524;11.284;2023-04-03T08:06:06;14.40;57.50
5192;DHT22;2615;44.524;11.284;2023-04-03T08:08:42;14.50;57.40
5192;DHT22;2615;44.524;11.284;2023-04-03T08:11:11;14.60;57.30
5192;DHT22;2615;44.524;11.284;2023-04-03T08:13:40;14.80;57.50
5192;DHT22;2615;44.524;11.284;2023-04-03T08:16:11;14.90;57.40
5192;DHT22;2615;44.524;11.284;2023-04-03T08:18:40;15.00;57.30
5192;DHT22;2615;44.524;11.284;2023-04-03T08:21:09;15.20;57.30
5192;DHT22;2615;44.524;11.284;2023-04-03T08:23:38;15.30;57.20
5192;DHT22;2615;44.524;11.284;2023-04-03T08:26:10;15.40;57.20
5192;DHT22;2615;44.524;11.284;2023-04-03T08:28:39;15.50;57.20
5192;DHT22;2615;44.524;11.284;2023-04-03T08:31:09;15.50;57.10
5192;DHT22;2615;44.524;11.284;2023-04-03T08:33:39;15.60;57.00
5192;DHT22;2615;44.524;11.284;2023-04-03T08:36:16;15.60;56.80
5192;DHT22;2615;44.524;11.284;2023-04-03T08:38:45;15.60;56.90
5192;DHT22;2615;44.524;11.284;2023-04-03T08:41:19;15.70;56.90
5192;DHT22;2615;44.524;11.284;2023-04-03T08:43:58;15.80;56.70
5192;DHT22;2615;44.524;11.284;2023-04-03T08:46:38;15.90;56.50
5192;DHT22;2615;44.524;11.284;2023-04-03T08:49:14;15.90;56.50
5192;DHT22;2615;44.524;11.284;2023-04-03T08:51:47;16.10;56.70
5192;DHT22;2615;44.524;11.284;2023-04-03T08:54:24;16.20;56.50
5192;DHT22;2615;44.524;11.284;2023-04-03T08:56:58;16.30;56.50
5192;DHT22;2615;44.524;11.284;2023-04-03T08:59:31;16.50;56.40
5192;DHT22;2615;44.524;11.284;2023-04-03T09:02:04;16.50;56.10
5192;DHT22;2615;44.524;11.284;2023-04-03T09:04:33;16.60;56.00
5192;DHT22;2615;44.524;11.284;2023-04-03T09:07:07;16.50;55.80
5192;DHT22;2615;44.524;11.284;2023-04-03T09:09:40;16.50;55.60
5192;DHT22;2615;44.524;11.284;2023-04-03T09:12:17;16.40;55.60
5192;DHT22;2615;44.524;11.284;2023-04-03T09:14:53;16.40;55.60
5192;DHT22;2615;44.524;11.284;2023-04-03T09:17:32;16.30;55.60
5192;DHT22;2615;44.524;11.284;2023-04-03T09:20:13;16.40;55.70
5192;DHT22;2615;44.524;11.284;2023-04-03T09:22:47;16.30;55.60
5192;DHT22;2615;44.524;11.284;2023-04-03T09:25:21;16.20;55.40
5192;DHT22;2615;44.524;11.284;2023-04-03T09:27:51;16.10;55.40
5192;DHT22;2615;44.524;11.284;2023-04-03T09:30:21;15.90;55.20
5192;DHT22;2615;44.524;11.284;2023-04-03T09:32:51;15.80;55.20
5192;DHT22;2615;44.524;11.284;2023-04-03T09:35:23;15.60;55.30
5192;DHT22;2615;44.524;11.284;2023-04-03T09:38:16;15.60;55.60
5192;DHT22;2615;44.524;11.284;2023-04-03T09:40:46;15.50;55.70
5192;DHT22;2615;44.524;11.284;2023-04-03T09:43:25;15.50;55.80
5192;DHT22;2615;44.524;11.284;2023-04-03T09:45:55;15.40;55.80
5192;DHT22;2615;44.524;11.284;2023-04-03T09:48:24;15.30;55.80
5192;DHT22;2615;44.524;11.284;2023-04-03T09:50:56;15.20;55.80
5192;DHT22;2615;44.524;11.284;2023-04-03T09:53:32;15.20;55.90
5192;DHT22;2615;44.524;11.284;2023-04-03T09:56:03;15.10;55.80
5192;DHT22;2615;44.524;11.284;2023-04-03T09:58:36;15.00;55.80
5192;DHT22;2615;44.524;11.284;2023-04-03T10:01:28;14.90;55.80
5192;DHT22;2615;44.524;11.284;2023-04-03T10:04:06;14.80;55.80
5192;DHT22;2615;44.524;11.284;2023-04-03T10:06:36;14.80;55.80
5192;DHT22;2615;44.524;11.284;2023-04-03T10:09:17;14.80;56.40
5192;DHT22;2615;44.524;11.284;2023-04-03T10:12:03;14.80;55.90
5192;DHT22;2615;44.524;11.284;2023-04-03T10:14:35;14.70;55.90
5192;DHT22;2615;44.524;11.284;2023-04-03T10:17:14;14.70;55.90
5192;DHT22;2615;44.524;11.284;2023-04-03T10:19:45;14.70;55.90
5192;DHT22;2615;44.524;11.284;2023-04-03T10:22:24;14.70;55.80
5192;DHT22;2615;44.524;11.284;2023-04-03T10:25:03;14.70;55.90
5192;DHT22;2615;44.524;11.284;2023-04-03T10:27:40;14.60;56.30
5192;DHT22;2615;44.524;11.284;2023-04-03T10:30:20;14.70;56.10
5192;DHT22;2615;44.524;11.284;2023-04-03T10:32:58;14.70;56.20
5192;DHT22;2615;44.524;11.284;2023-04-03T10:35:39;14.80;56.40
5192;DHT22;2615;44.524;11.284;2023-04-03T10:38:17;14.80;56.30
5192;DHT22;2615;44.524;11.284;2023-04-03T10:40:52;14.80;56.10
5192;DHT22;2615;44.524;11.284;2023-04-03T10:43:29;14.90;56.20
5192;DHT22;2615;44.524;11.284;2023-04-03T10:46:08;15.00;56.30
5192;DHT22;2615;44.524;11.284;2023-04-03T10:48:49;15.10;56.20
5192;DHT22;2615;44.524;11.284;2023-04-03T10:51:27;15.10;56.10
5192;DHT22;2615;44.524;11.284;2023-04-03T10:54:00;15.10;55.90
5192;DHT22;2615;44.524;11.284;2023-04-03T10:56:36;15.10;55.50
5192;DHT22;2615;44.524;11.284;2023-04-03T10:59:16;15.00;55.10
5192;DHT22;2615;44.524;11.284;2023-04-03T11:01:50;15.00;55.10
5192;DHT22;2615;44.524;11.284;2023-04-03T11:04:21;15.30;55.60
5192;DHT22;2615;44.524;11.284;2023-04-03T11:06:54;15.60;55.40
5192;DHT22;2615;44.524;11.284;2023-04-03T11:09:27;16.10;55.30
5192;DHT22;2615;44.524;11.284;2023-04-03T11:12:02;16.50;54.70
5192;DHT22;2615;44.524;11.284;2023-04-03T11:14:32;16.90;54.50
5192;DHT22;2615;44.524;11.284;2023-04-03T11:17:11;17.50;54.50
5192;DHT22;2615;44.524;11.284;2023-04-03T11:19:47;18.20;53.60
5192;DHT22;2615;44.524;11.284;2023-04-03T11:22:22;18.80;53.10
5192;DHT22;2615;44.524;11.284;2023-04-03T11:24:59;19.20;51.90
5192;DHT22;2615;44.524;11.284;2023-04-03T11:27:35;19.30;51.00
5192;DHT22;2615;44.524;11.284;2023-04-03T11:30:09;19.20;50.30
5192;DHT22;2615;44.524;11.284;2023-04-03T11:33:21;19.00;50.10
5192;DHT22;2615;44.524;11.284;2023-04-03T11:35:55;18.60;49.50
5192;DHT22;2615;44.524;11.284;2023-04-03T11:38:27;18.50;49.80
5192;DHT22;2615;44.524;11.284;2023-04-03T11:40:57;18.30;49.30
5192;DHT22;2615;44.524;11.284;2023-04-03T11:43:28;18.30;49.40
5192;DHT22;2615;44.524;11.284;2023-04-03T11:45:58;18.30;49.20
5192;DHT22;2615;44.524;11.284;2023-04-03T11:48:52;18.30;48.90
5192;DHT22;2615;44.524;11.284;2023-04-03T11:51:42;18.40;48.50
5192;DHT22;2615;44.524;11.284;2023-04-03T11:54:35;18.90;49.40
5192;DHT22;2615;44.524;11.284;2023-04-03T11:57:47;19.80;48.30
5192;DHT22;2615;44.524;11.284;2023-04-03T12:09:37;22.70;45.70
5192;DHT22;2615;44.524;11.284;2023-04-03T12:12:36;23.40;45.40
5192;DHT22;2615;44.524;11.284;2023-04-03T12:18:40;24.20;43.70
5192;DHT22;2615;44.524;11.284;2023-04-03T12:21:09;24.60;43.30
5192;DHT22;2615;44.524;11.284;2023-04-03T12:26:46;24.50;41.70
5192;DHT22;2615;44.524;11.284;2023-04-03T12:29:18;24.70;42.00
5192;DHT22;2615;44.524;11.284;2023-04-03T12:31:58;24.90;41.40
5192;DHT22;2615;44.524;11.284;2023-04-03T12:34:55;24.70;40.30
5192;DHT22;2615;44.524;11.284;2023-04-03T12:37:40;24.40;40.20
5192;DHT22;2615;44.524;11.284;2023-04-03T12:40:16;24.10;40.30
5192;DHT22;2615;44.524;11.284;2023-04-03T12:43:20;23.70;40.10
5192;DHT22;2615;44.524;11.284;2023-04-03T12:45:59;23.10;39.40
5192;DHT22;2615;44.524;11.284;2023-04-03T12:48:32;22.50;39.90
5192;DHT22;2615;44.524;11.284;2023-04-03T12:51:02;22.00;40.00
5192;DHT22;2615;44.524;11.284;2023-04-03T12:53:33;21.60;40.20
5192;DHT22;2615;44.524;11.284;2023-04-03T12:56:20;21.40;40.20
5192;DHT22;2615;44.524;11.284;2023-04-03T12:58:51;21.10;39.70
5192;DHT22;2615;44.524;11.284;2023-04-03T13:01:24;20.80;40.00
5192;DHT22;2615;44.524;11.284;2023-04-03T13:03:55;20.50;40.00
5192;DHT22;2615;44.524;11.284;2023-04-03T13:06:27;20.20;39.80
5192;DHT22;2615;44.524;11.284;2023-04-03T13:08:57;20.00;39.90
5192;DHT22;2615;44.524;11.284;2023-04-03T13:11:29;19.90;40.10
5192;DHT22;2615;44.524;11.284;2023-04-03T13:14:02;19.70;40.10
5192;DHT22;2615;44.524;11.284;2023-04-03T13:16:32;19.50;40.00
5192;DHT22;2615;44.524;11.284;2023-04-03T13:19:01;19.40;40.00
5192;DHT22;2615;44.524;11.284;2023-04-03T13:21:31;19.30;40.00
5192;DHT22;2615;44.524;11.284;2023-04-03T13:24:01;19.20;39.90
5192;DHT22;2615;44.524;11.284;2023-04-03T13:26:41;19.10;39.90
5192;DHT22;2615;44.524;11.284;2023-04-03T13:29:21;18.90;39.90
5192;DHT22;2615;44.524;11.284;2023-04-03T13:31:58;18.80;40.00
5192;DHT22;2615;44.524;11.284;2023-04-03T13:34:29;18.70;40.10
5192;DHT22;2615;44.524;11.284;2023-04-03T13:37:00;18.50;40.00
5192;DHT22;2615;44.524;11.284;2023-04-03T13:39:31;18.30;40.00
5192;DHT22;2615;44.524;11.284;2023-04-03T13:42:00;18.20;39.90
5192;DHT22;2615;44.524;11.284;2023-04-03T13:44:34;18.20;39.80
5192;DHT22;2615;44.524;11.284;2023-04-03T13:47:16;18.00;39.70
5192;DHT22;2615;44.524;11.284;2023-04-03T13:49:57;17.90;39.70
5192;DHT22;2615;44.524;11.284;2023-04-03T13:52:28;17.80;40.00
5192;DHT22;2615;44.524;11.284;2023-04-03T13:55:00;17.80;40.10
5192;DHT22;2615;44.524;11.284;2023-04-03T13:57:33;17.70;40.20
5192;DHT22;2615;44.524;11.284;2023-04-03T14:00:22;17.70;40.20
5192;DHT22;2615;44.524;11.284;2023-04-03T14:02:56;17.60;40.00
5192;DHT22;2615;44.524;11.284;2023-04-03T14:05:24;17.60;40.20
5192;DHT22;2615;44.524;11.284;2023-04-03T14:07:53;17.50;40.10
5192;DHT22;2615;44.524;11.284;2023-04-03T14:10:22;17.50;40.10
5192;DHT22;2615;44.524;11.284;2023-04-03T14:12:50;17.40;40.10
5192;DHT22;2615;44.524;11.284;2023-04-03T14:15:22;17.30;40.10
5192;DHT22;2615;44.524;11.284;2023-04-03T14:17:53;17.20;40.00
5192;DHT22;2615;44.524;11.284;2023-04-03T14:20:24;17.20;40.00
5192;DHT22;2615;44.524;11.284;2023-04-03T14:22:53;17.20;40.00
5192;DHT22;2615;44.524;11.284;2023-04-03T14:25:22;17.10;39.90
5192;DHT22;2615;44.524;11.284;2023-04-03T14:27:51;17.10;39.80
5192;DHT22;2615;44.524;11.284;2023-04-03T14:30:23;17.00;39.60
5192;DHT22;2615;44.524;11.284;2023-04-03T14:32:53;16.90;39.40
5192;DHT22;2615;44.524;11.284;2023-04-03T14:35:22;16.90;39.70
5192;DHT22;2615;44.524;11.284;2023-04-03T14:37:51;16.90;39.80
5192;DHT22;2615;44.524;11.284;2023-04-03T14:40:24;16.90;39.80
5192;DHT22;2615;44.524;11.284;2023-04-03T14:42:53;16.80;39.60
5192;DHT22;2615;44.524;11.284;2023-04-03T14:45:22;16.80;39.60
5192;DHT22;2615;44.524;11.284;2023-04-03T14:47:53;16.80;39.70
5192;DHT22;2615;44.524;11.284;2023-04-03T14:50:24;16.70;39.60
5192;DHT22;2615;44.524;11.284;2023-04-03T14:52:55;16.70;39.70
5192;DHT22;2615;44.524;11.284;2023-04-03T14:55:25;16.70;39.60
5192;DHT22;2615;44.524;11.284;2023-04-03T14:57:53;16.60;39.40
5192;DHT22;2615;44.524;11.284;2023-04-03T15:00:22;16.60;39.40
5192;DHT22;2615;44.524;11.284;2023-04-03T15:02:52;16.60;39.30
5192;DHT22;2615;44.524;11.284;2023-04-03T15:05:20;16.50;39.20
5192;DHT22;2615;44.524;11.284;2023-04-03T15:07:52;16.50;39.20
5192;DHT22;2615;44.524;11.284;2023-04-03T15:10:22;16.50;39.20
5192;DHT22;2615;44.524;11.284;2023-04-03T15:12:51;16.50;39.30
5192;DHT22;2615;44.524;11.284;2023-04-03T15:15:21;16.50;39.40
5192;DHT22;2615;44.524;11.284;2023-04-03T15:17:53;16.40;39.20
5192;DHT22;2615;44.524;11.284;2023-04-03T15:20:25;16.40;39.20
5192;DHT22;2615;44.524;11.284;2023-04-03T15:22:54;16.40;39.10
5192;DHT22;2615;44.524;11.284;2023-04-03T15:25:24;16.40;39.20
5192;DHT22;2615;44.524;11.284;2023-04-03T15:27:53;16.40;39.20
5192;DHT22;2615;44.524;11.284;2023-04-03T15:30:21;16.30;39.10
5192;DHT22;2615;44.524;11.284;2023-04-03T15:32:49;16.30;39.10
5192;DHT22;2615;44.524;11.284;2023-04-03T15:35:19;16.20;39.10
5192;DHT22;2615;44.524;11.284;2023-04-03T15:37:47;16.10;39.00
5192;DHT22;2615;44.524;11.284;2023-04-03T15:40:16;16.10;39.10
5192;DHT22;2615;44.524;11.284;2023-04-03T15:42:44;16.10;39.00
5192;DHT22;2615;44.524;11.284;2023-04-03T15:45:12;16.00;38.90
5192;DHT22;2615;44.524;11.284;2023-04-03T15:47:41;16.00;38.90
5192;DHT22;2615;44.524;11.284;2023-04-03T15:50:09;16.00;38.90
5192;DHT22;2615;44.524;11.284;2023-04-03T15:52:39;16.00;39.00
5192;DHT22;2615;44.524;11.284;2023-04-03T15:55:08;16.00;38.90
5192;DHT22;2615;44.524;11.284;2023-04-03T15:57:36;15.90;38.80
5192;DHT22;2615;44.524;11.284;2023-04-03T16:00:10;15.90;38.80
5192;DHT22;2615;44.524;11.284;2023-04-03T16:02:39;15.80;38.80
5192;DHT22;2615;44.524;11.284;2023-04-03T16:05:09;15.80;38.80
5192;DHT22;2615;44.524;11.284;2023-04-03T16:07:39;15.80;39.00
5192;DHT22;2615;44.524;11.284;2023-04-03T16:10:09;15.80;39.10
5192;DHT22;2615;44.524;11.284;2023-04-03T16:12:37;15.70;39.00
5192;DHT22;2615;44.524;11.284;2023-04-03T16:15:06;15.70;39.00
5192;DHT22;2615;44.524;11.284;2023-04-03T16:17:34;15.70;39.00
5192;DHT22;2615;44.524;11.284;2023-04-03T16:20:05;15.60;39.00
5192;DHT22;2615;44.524;11.284;2023-04-03T16:22:34;15.60;39.00
5192;DHT22;2615;44.524;11.284;2023-04-03T16:25:04;15.50;38.90
5192;DHT22;2615;44.524;11.284;2023-04-03T16:27:33;15.40;38.80
5192;DHT22;2615;44.524;11.284;2023-04-03T16:30:01;15.30;38.70
5192;DHT22;2615;44.524;11.284;2023-04-03T16:32:30;15.30;38.80